Time;durP1;ratioP1;P1;durP2;ratioP2;P2;SDS_P1;SDS_P2;PMS_P1;PMS_P2;Temp;Humidity;BMP_temperature;BMP_pressure;BME280_temperature;BME280_humidity;BME280_pressure;Samples;Min_cycle;Max_cycle;Signal;HPM_P1;HPM_P2
2022/10/24 00:01:07;;;;;;;0.17;0.17;;;17.70;99.90;18.30;100036.00;;;;5136061;27;20212;-68
2022/10/24 00:04:11;;;;;;;0.20;0.20;;;17.70;99.90;18.30;100036.00;;;;5127265;27;20246;-68
2022/10/24 00:07:11;;;;;;;0.50;0.50;;;17.60;99.90;18.20;100049.00;;;;5123969;27;20231;-68
2022/10/24 00:10:23;;;;;;;0.20;0.20;;;17.60;99.90;18.20;100029.00;;;;5128111;27;20210;-68
2022/10/24 00:13:40;;;;;;;1.80;1.70;;;17.70;99.90;18.20;100027.00;;;;5136533;27;20221;-68
2022/10/24 00:16:27;;;;;;;0.43;0.43;;;17.70;99.90;18.40;100040.00;;;;5136017;27;20203;-68
2022/10/24 00:19:23;;;;;;;2.40;0.50;;;17.70;99.90;18.60;100041.00;;;;5115610;28;20225;-68
2022/10/24 00:22:20;;;;;;;0.30;0.30;;;17.80;99.90;18.30;100036.00;;;;5114763;28;20663;-68
2022/10/24 00:25:28;;;;;;;1.70;0.40;;;17.70;99.90;18.20;100046.00;;;;5104825;28;20549;-68
2022/10/24 00:28:30;;;;;;;5.33;0.40;;;17.60;99.90;18.50;100055.00;;;;5097123;28;20195;-68
2022/10/24 00:31:40;;;;;;;0.47;0.47;;;17.70;99.90;18.60;100050.00;;;;5103188;28;20166;-68
2022/10/24 00:34:35;;;;;;;0.20;0.20;;;17.70;99.90;18.60;99993.00;;;;5115356;28;20190;-68
2022/10/24 00:37:32;;;;;;;0.30;0.30;;;17.70;99.90;18.60;100016.00;;;;5103337;28;20199;-68
2022/10/24 00:40:25;;;;;;;0.33;0.33;;;17.70;99.90;18.40;100046.00;;;;5114331;28;20630;-68
2022/10/24 00:43:57;;;;;;;0.43;0.43;;;17.70;99.90;18.50;100059.00;;;;5114479;28;20187;-68
2022/10/24 00:46:56;;;;;;;0.67;0.67;;;17.70;99.90;18.60;100074.00;;;;5060835;28;20235;-68
2022/10/24 00:50:11;;;;;;;0.67;0.67;;;17.70;99.90;18.50;100063.00;;;;5105731;28;20294;-68
2022/10/24 00:53:18;;;;;;;0.30;0.30;;;17.70;99.90;18.60;100061.00;;;;5114200;28;20575;-67
2022/10/24 00:56:16;;;;;;;0.63;0.63;;;17.70;99.90;18.50;100073.00;;;;5107014;28;20261;-67
2022/10/24 00:59:25;;;;;;;0.27;0.27;;;17.70;99.90;18.40;100068.00;;;;5114163;28;20184;-68
2022/10/24 01:02:36;;;;;;;0.77;0.70;;;17.70;99.90;18.60;100062.00;;;;5114061;28;20300;-68
2022/10/24 01:05:31;;;;;;;0.97;0.70;;;17.70;99.90;18.60;100068.00;;;;5113891;28;20261;-68
2022/10/24 01:09:23;;;;;;;2.42;1.25;;;17.80;99.90;18.40;100065.00;;;;5114221;28;20229;-68
2022/10/24 01:12:35;;;;;;;4.43;0.50;;;17.70;99.90;18.70;100076.00;;;;5032079;28;20223;-68
2022/10/24 01:15:44;;;;;;;0.40;0.40;;;17.80;99.90;18.60;100047.00;;;;5021543;28;20197;-68
2022/10/24 01:18:39;;;;;;;0.30;0.30;;;17.80;99.90;18.50;100079.00;;;;5032253;28;20189;-68
2022/10/24 01:21:37;;;;;;;0.70;0.30;;;17.70;99.90;18.50;100067.00;;;;5016182;28;20574;-68
2022/10/24 01:24:58;;;;;;;1.60;0.43;;;17.60;99.90;18.70;100049.00;;;;5031886;28;20268;-68
2022/10/24 01:28:32;;;;;;;0.23;0.23;;;17.60;99.90;18.40;100060.00;;;;5031852;28;20199;-68
2022/10/24 01:31:28;;;;;;;0.10;0.10;;;17.60;99.90;18.80;100064.00;;;;5031427;28;20184;-68
2022/10/24 01:34:30;;;;;;;0.37;0.37;;;17.70;99.90;18.40;100057.00;;;;5015524;28;20307;-68
2022/10/24 01:37:54;;;;;;;0.30;0.30;;;17.60;99.90;18.30;100024.00;;;;5028284;28;20331;-68
2022/10/24 01:40:51;;;;;;;1.00;0.90;;;17.60;99.90;18.10;100044.00;;;;4935826;29;20204;-68
2022/10/24 01:43:55;;;;;;;0.37;0.33;;;17.60;99.90;18.50;100031.00;;;;4934758;29;20204;-68
2022/10/24 01:46:56;;;;;;;0.43;0.43;;;17.60;99.90;18.50;100079.00;;;;4934056;29;20197;-68
2022/10/24 01:49:55;;;;;;;0.20;0.20;;;17.60;99.90;18.20;100078.00;;;;5129343;27;20254;-68
2022/10/24 01:52:45;;;;;;;0.40;0.40;;;17.50;99.90;18.20;100056.00;;;;5113116;28;20204;-68
2022/10/24 01:55:51;;;;;;;0.10;0.10;;;17.50;99.90;18.60;100090.00;;;;5112944;28;20258;-68
2022/10/24 02:03:03;;;;;;;0.83;0.40;;;17.50;99.90;18.20;100091.00;;;;5031203;28;20214;-68
2022/10/24 02:06:14;;;;;;;0.20;0.20;;;17.40;99.90;18.70;100103.00;;;;4998629;28;20216;-68
2022/10/24 02:09:20;;;;;;;0.30;0.30;;;17.50;99.90;18.30;100099.00;;;;5112811;28;20506;-68
2022/10/24 02:12:22;;;;;;;0.33;0.33;;;17.40;99.90;18.40;100108.00;;;;5092152;28;20221;-68
2022/10/24 02:15:30;;;;;;;1.27;0.30;;;17.40;99.90;18.40;100107.00;;;;5112456;28;20646;-68
2022/10/24 02:18:42;;;;;;;0.20;0.20;;;17.40;99.90;18.40;100116.00;;;;5095652;28;20308;-68
2022/10/24 02:21:37;;;;;;;0.30;0.30;;;17.40;99.90;18.60;100132.00;;;;5113431;28;20556;-68
2022/10/24 02:25:12;;;;;;;1.70;0.30;;;17.40;99.90;18.40;100115.00;;;;5114134;28;20217;-68
2022/10/24 02:28:12;;;;;;;0.20;0.20;;;17.30;99.90;18.30;100117.00;;;;5104455;28;20209;-68
2022/10/24 02:31:20;;;;;;;0.20;0.20;;;17.30;99.90;18.50;100128.00;;;;5104984;28;20274;-68
2022/10/24 02:34:02;;;;;;;0.20;0.20;;;17.40;99.90;18.10;100093.00;;;;5113710;28;20190;-68
2022/10/24 02:37:04;;;;;;;0.30;0.23;;;17.30;99.90;18.40;100100.00;;;;5112441;28;20179;-68
2022/10/24 02:39:56;;;;;;;2.00;0.40;;;17.40;99.90;18.00;100099.00;;;;5089332;28;20652;-68
2022/10/24 02:42:57;;;;;;;0.20;0.20;;;17.40;99.90;17.90;100069.00;;;;5099770;28;20195;-68
2022/10/24 02:45:59;;;;;;;0.70;0.53;;;17.30;99.90;18.20;100086.00;;;;5105601;28;20675;-68
2022/10/24 02:48:59;;;;;;;0.50;0.47;;;17.30;99.90;18.10;100103.00;;;;5112585;28;20234;-68
2022/10/24 02:51:42;;;;;;;0.30;0.30;;;17.40;99.90;18.00;100100.00;;;;5112314;28;20197;-68
2022/10/24 02:54:31;;;;;;;0.93;0.33;;;17.30;99.90;17.90;100056.00;;;;5112374;28;20170;-68
2022/10/24 02:57:25;;;;;;;0.57;0.57;;;17.30;99.90;18.50;100036.00;;;;5112382;28;20178;-68
2022/10/24 03:00:29;;;;;;;0.20;0.20;;;17.40;99.90;18.70;100099.00;;;;5112384;28;20633;-68
2022/10/24 03:03:38;;;;;;;1.60;0.27;;;17.50;99.90;18.50;100097.00;;;;5112959;28;20203;-68
2022/10/24 03:06:36;;;;;;;0.80;0.80;;;17.50;99.90;18.30;100091.00;;;;5094210;28;20202;-68
2022/10/24 03:09:41;;;;;;;0.30;0.30;;;17.60;99.90;18.10;100074.00;;;;5105862;28;20194;-67
2022/10/24 03:12:36;;;;;;;4.70;0.50;;;17.40;99.90;18.20;100082.00;;;;5093265;28;20257;-68
2022/10/24 03:15:48;;;;;;;3.93;2.53;;;17.30;99.90;17.90;100082.00;;;;5112519;28;20178;-68
2022/10/24 03:18:53;;;;;;;1.03;0.40;;;17.30;99.90;17.80;100070.00;;;;5113742;28;20664;-68
2022/10/24 03:21:57;;;;;;;0.10;0.10;;;17.20;99.90;17.80;100063.00;;;;5107424;28;20214;-68
2022/10/24 03:24:54;;;;;;;2.23;0.20;;;17.00;99.90;17.90;100058.00;;;;5111934;28;20223;-68
2022/10/24 03:27:51;;;;;;;0.20;0.20;;;17.10;99.90;18.00;100051.00;;;;5116202;27;20199;-68
2022/10/24 03:31:01;;;;;;;0.13;0.13;;;17.10;99.90;18.00;100065.00;;;;5106852;28;20281;-68
2022/10/24 03:33:53;;;;;;;0.87;0.40;;;17.10;99.90;17.90;100063.00;;;;5114862;28;20229;-68
2022/10/24 03:37:03;;;;;;;1.47;0.50;;;17.10;99.90;17.90;100032.00;;;;5106327;28;20585;-68
2022/10/24 03:39:59;;;;;;;0.20;0.20;;;17.10;99.90;17.70;100064.00;;;;5116040;28;20189;-68
2022/10/24 03:42:59;;;;;;;1.40;0.20;;;17.00;99.90;17.70;100054.00;;;;5105598;28;20233;-68
2022/10/24 03:46:23;;;;;;;2.27;0.67;;;17.00;99.90;17.90;100061.00;;;;5116618;28;20173;-68
2022/10/24 03:49:15;;;;;;;0.40;0.40;;;17.00;99.90;17.80;100070.00;;;;5129095;27;20175;-68
2022/10/24 03:52:20;;;;;;;0.20;0.20;;;17.00;99.90;17.50;100038.00;;;;5136009;27;20664;-68
2022/10/24 03:55:37;;;;;;;1.07;1.03;;;16.90;99.90;17.70;100050.00;;;;5133019;27;20202;-68
2022/10/24 03:58:40;;;;;;;0.30;0.30;;;17.00;99.90;17.70;100056.00;;;;5125530;27;20276;-68
2022/10/24 04:01:17;;;;;;;0.20;0.20;;;16.90;99.90;17.80;100017.00;;;;5122574;27;20175;-68
2022/10/24 04:03:55;;;;;;;0.60;0.60;;;16.90;99.90;17.80;100035.00;;;;5118688;27;20304;-68
2022/10/24 04:06:26;;;;;;;3.93;0.30;;;17.00;99.90;18.00;100058.00;;;;5137409;27;20605;-68
2022/10/24 04:08:57;;;;;;;0.43;0.43;;;17.10;99.90;17.60;100052.00;;;;5137096;27;20169;-69
2022/10/24 04:11:28;;;;;;;0.80;0.30;;;17.00;99.90;17.60;100062.00;;;;5136479;27;20176;-68
2022/10/24 04:14:02;;;;;;;0.93;0.30;;;17.00;99.90;17.80;100068.00;;;;5137005;27;20161;-68
2022/10/24 04:16:36;;;;;;;0.10;0.10;;;17.00;99.90;17.90;100058.00;;;;5135667;27;20172;-68
2022/10/24 04:19:09;;;;;;;0.20;0.20;;;17.00;99.90;17.60;100067.00;;;;5135339;27;20203;-69
2022/10/24 04:21:44;;;;;;;0.20;0.20;;;17.00;99.90;17.80;100075.00;;;;5136841;27;20223;-68
2022/10/24 04:24:15;;;;;;;1.00;0.60;;;17.00;99.90;18.10;100078.00;;;;5135383;27;20583;-69
2022/10/24 04:26:47;;;;;;;0.20;0.20;;;17.10;99.90;18.20;100075.00;;;;5135499;27;20181;-69
2022/10/24 04:29:20;;;;;;;1.07;0.40;;;17.10;99.90;17.80;100075.00;;;;5136503;27;20162;-69
2022/10/24 04:31:52;;;;;;;0.40;0.40;;;17.10;99.90;17.80;100083.00;;;;5134874;27;20214;-70
2022/10/24 04:34:23;;;;;;;0.20;0.20;;;17.00;99.90;17.90;100059.00;;;;5136158;27;20231;-69
2022/10/24 04:36:51;;;;;;;4.43;0.20;;;17.10;99.90;17.80;100070.00;;;;5135136;27;20182;-69
2022/10/24 04:39:23;;;;;;;0.30;0.30;;;17.10;99.90;17.70;100070.00;;;;5136181;27;20183;-69
2022/10/24 04:41:55;;;;;;;0.20;0.20;;;17.10;99.90;17.70;100065.00;;;;5135243;27;20200;-69
2022/10/24 04:44:21;;;;;;;0.73;0.30;;;17.10;99.90;18.10;100058.00;;;;5135859;27;20255;-69
2022/10/24 04:46:52;;;;;;;0.53;0.53;;;17.20;99.90;17.90;100068.00;;;;5117590;27;20268;-69
2022/10/24 04:49:18;;;;;;;0.50;0.20;;;17.10;99.90;18.10;100068.00;;;;5117463;27;20535;-69
2022/10/24 04:51:52;;;;;;;0.20;0.20;;;17.10;99.90;17.70;100048.00;;;;5134982;27;20201;-69
2022/10/24 04:54:21;;;;;;;0.50;0.50;;;17.10;99.90;17.80;100064.00;;;;5134615;27;20178;-69
2022/10/24 04:56:52;;;;;;;0.20;0.20;;;17.00;99.90;17.80;100068.00;;;;5135818;27;20176;-69
2022/10/24 04:59:21;;;;;;;4.70;0.77;;;17.00;99.90;17.80;100075.00;;;;5134825;27;20184;-69
2022/10/24 05:01:53;;;;;;;3.13;2.93;;;17.10;99.90;17.80;100075.00;;;;5135879;27;20197;-70
2022/10/24 05:04:22;;;;;;;0.37;0.37;;;17.10;99.90;17.80;100078.00;;;;5135772;27;20614;-69
2022/10/24 05:06:53;;;;;;;3.20;1.10;;;17.00;99.90;17.80;100059.00;;;;5134699;27;20171;-68
2022/10/24 05:09:19;;;;;;;0.30;0.30;;;17.10;99.90;17.50;100082.00;;;;5134228;27;20177;-68
2022/10/24 05:11:48;;;;;;;6.27;6.03;;;17.00;99.90;17.60;100078.00;;;;5134402;27;20288;-68
2022/10/24 05:14:19;;;;;;;1.40;0.90;;;17.00;99.90;17.70;100086.00;;;;5134279;27;20724;-69
2022/10/24 05:16:53;;;;;;;1.60;0.30;;;17.00;99.90;17.60;100084.00;;;;5134642;27;20637;-68
2022/10/24 05:19:22;;;;;;;0.33;0.30;;;17.00;99.90;17.60;100093.00;;;;5135222;27;20181;-68
2022/10/24 05:21:53;;;;;;;0.13;0.13;;;17.00;99.90;17.50;100086.00;;;;5135325;27;20609;-68
2022/10/24 05:24:24;;;;;;;1.53;1.07;;;16.90;99.90;17.50;100078.00;;;;5133731;27;20185;-68
2022/10/24 05:27:01;;;;;;;5.17;1.37;;;16.80;99.90;17.70;100104.00;;;;5134171;27;20216;-68
2022/10/24 05:29:35;;;;;;;1.90;0.43;;;16.90;99.90;17.50;100111.00;;;;5134309;27;20381;-69
2022/10/24 05:32:06;;;;;;;0.23;0.23;;;16.80;99.90;17.50;100108.00;;;;5134961;27;20243;-69
2022/10/24 05:34:43;;;;;;;1.03;0.60;;;16.80;99.90;17.00;100096.00;;;;5133796;27;20185;-68
2022/10/24 05:37:14;;;;;;;1.40;1.37;;;16.70;99.90;17.30;100110.00;;;;5133816;27;20228;-68
2022/10/24 05:39:51;;;;;;;0.30;0.30;;;16.60;99.90;17.10;100115.00;;;;5133972;27;20179;-68
2022/10/24 05:42:27;;;;;;;0.77;0.40;;;16.60;99.90;17.30;100119.00;;;;5116325;27;20186;-69
2022/10/24 05:44:58;;;;;;;0.20;0.20;;;16.60;99.90;17.10;100112.00;;;;5134828;27;20612;-68
2022/10/24 05:47:27;;;;;;;0.70;0.60;;;16.60;99.90;17.00;100116.00;;;;5133878;27;20180;-67
2022/10/24 05:50:07;;;;;;;0.20;0.20;;;16.50;99.90;16.90;100118.00;;;;5133809;27;20175;-67
2022/10/24 05:52:41;;;;;;;0.20;0.20;;;16.40;99.90;17.10;100103.00;;;;5133240;27;20220;-68
2022/10/24 05:55:17;;;;;;;2.83;0.60;;;16.40;99.90;17.20;100139.00;;;;5134821;27;20265;-68
2022/10/24 05:57:51;;;;;;;0.43;0.43;;;16.50;99.90;16.90;100135.00;;;;5133498;27;20178;-68
2022/10/24 06:00:23;;;;;;;0.97;0.23;;;16.40;99.90;16.70;100135.00;;;;5133688;27;20179;-68
2022/10/24 06:03:03;;;;;;;0.20;0.20;;;16.30;99.90;16.70;100124.00;;;;5134430;27;20189;-68
2022/10/24 06:05:34;;;;;;;0.20;0.20;;;16.30;99.90;17.10;100140.00;;;;5133047;27;20236;-67
2022/10/24 06:08:05;;;;;;;0.20;0.20;;;16.30;99.90;17.00;100142.00;;;;5134258;27;20183;-68
2022/10/24 06:10:37;;;;;;;0.17;0.17;;;16.30;99.90;16.80;100147.00;;;;5133438;27;20169;-68
2022/10/24 06:13:08;;;;;;;0.20;0.20;;;16.20;99.90;16.50;100147.00;;;;5133333;27;20206;-68
2022/10/24 06:15:41;;;;;;;5.40;0.50;;;16.00;99.90;16.60;100158.00;;;;5133077;27;20178;-68
2022/10/24 06:18:18;;;;;;;0.40;0.40;;;16.00;99.90;16.20;100162.00;;;;5115915;27;20275;-68
2022/10/24 06:20:52;;;;;;;3.00;0.60;;;15.80;99.90;16.10;100174.00;;;;5134151;27;20251;-68
2022/10/24 06:23:23;;;;;;;0.87;0.50;;;15.70;99.90;16.20;100143.00;;;;5112571;28;20219;-68
2022/10/24 06:25:57;;;;;;;0.20;0.20;;;15.70;99.90;16.80;100146.00;;;;5112793;28;20184;-68
2022/10/24 06:28:29;;;;;;;0.20;0.20;;;15.90;99.90;16.40;100170.00;;;;5113975;28;20163;-67
2022/10/24 06:31:02;;;;;;;0.20;0.20;;;15.80;99.90;16.60;100174.00;;;;5112465;28;20171;-68
2022/10/24 06:33:34;;;;;;;0.20;0.20;;;15.90;99.90;16.40;100172.00;;;;5112439;28;20263;-68
2022/10/24 06:36:06;;;;;;;1.23;0.50;;;15.80;99.90;16.10;100176.00;;;;5095005;28;20607;-68
2022/10/24 06:38:37;;;;;;;1.50;1.03;;;15.70;99.90;16.20;100189.00;;;;5095867;28;20225;-68
2022/10/24 06:41:08;;;;;;;0.20;0.20;;;15.60;99.90;15.90;100188.00;;;;5113401;28;20176;-68
2022/10/24 06:43:41;;;;;;;0.73;0.20;;;15.60;99.90;16.10;100154.00;;;;5112462;28;20209;-68
2022/10/24 06:46:22;;;;;;;0.30;0.30;;;15.60;99.90;16.00;100200.00;;;;5113670;28;20251;-68
2022/10/24 06:48:59;;;;;;;3.87;1.73;;;15.50;99.90;16.00;100155.00;;;;5112687;28;20234;-68
2022/10/24 06:51:30;;;;;;;0.53;0.53;;;15.50;99.90;16.20;100196.00;;;;5111801;28;20172;-68
2022/10/24 06:54:04;;;;;;;0.40;0.40;;;15.60;99.90;16.00;100206.00;;;;5113989;28;20661;-68
2022/10/24 06:56:36;;;;;;;0.20;0.20;;;15.50;99.90;16.60;100206.00;;;;5116441;28;20190;-68
2022/10/24 06:59:14;;;;;;;0.53;0.47;;;15.70;99.90;16.40;100173.00;;;;5116611;28;20168;-68
2022/10/24 07:01:46;;;;;;;0.53;0.30;;;15.70;99.90;16.20;100207.00;;;;5116463;28;20185;-68
2022/10/24 07:04:12;;;;;;;0.20;0.20;;;15.70;99.90;16.90;100204.00;;;;5115848;28;20204;-69
2022/10/24 07:06:37;;;;;;;2.47;0.60;;;15.90;99.90;17.00;100190.00;;;;5117284;28;20167;-68
2022/10/24 07:09:11;;;;;;;0.20;0.20;;;16.00;99.90;17.10;100224.00;;;;5117395;28;20535;-68
2022/10/24 07:11:43;;;;;;;0.87;0.53;;;16.10;99.90;17.40;100225.00;;;;5116166;28;20560;-68
2022/10/24 07:14:09;;;;;;;0.33;0.33;;;16.30;99.90;16.90;100218.00;;;;5116265;28;20180;-68
2022/10/24 07:16:40;;;;;;;0.20;0.20;;;16.30;99.90;17.40;100228.00;;;;5116042;28;20188;-68
2022/10/24 07:19:10;;;;;;;0.20;0.20;;;16.30;99.90;16.80;100229.00;;;;5115509;28;20657;-68
2022/10/24 07:21:39;;;;;;;0.20;0.20;;;16.30;99.90;17.10;100243.00;;;;5115932;28;20597;-68
2022/10/24 07:24:05;;;;;;;0.20;0.20;;;16.30;99.90;16.90;100257.00;;;;5117639;28;20169;-68
2022/10/24 07:26:31;;;;;;;0.10;0.10;;;16.30;99.90;17.30;100259.00;;;;5116321;28;20181;-68
2022/10/24 07:29:08;;;;;;;0.10;0.10;;;16.40;99.90;17.00;100266.00;;;;5115763;28;20565;-68
2022/10/24 07:31:35;;;;;;;2.07;1.07;;;16.30;99.90;16.80;100267.00;;;;5115631;28;20663;-68
2022/10/24 07:34:09;;;;;;;0.30;0.30;;;16.30;99.90;16.80;100239.00;;;;5116994;27;20202;-68
2022/10/24 07:36:47;;;;;;;0.20;0.20;;;16.20;99.90;17.50;100276.00;;;;5120567;27;20182;-68
2022/10/24 07:39:38;;;;;;;0.30;0.30;;;16.40;99.90;17.80;100285.00;;;;5118594;27;20180;-68
2022/10/24 07:42:04;;;;;;;0.20;0.20;;;16.60;99.90;17.10;100290.00;;;;5114198;27;20196;-68
2022/10/24 07:44:36;;;;;;;0.13;0.13;;;16.50;99.90;17.50;100292.00;;;;5149978;27;20710;-68
2022/10/24 07:47:27;;;;;;;4.43;1.13;;;16.50;99.90;17.40;100290.00;;;;5123166;27;20186;-68
2022/10/24 07:49:59;;;;;;;0.20;0.20;;;16.50;99.90;17.80;100290.00;;;;5107920;28;20205;-68
2022/10/24 07:52:25;;;;;;;0.30;0.30;;;16.70;99.90;17.40;100298.00;;;;5115148;28;20316;-68
2022/10/24 07:54:57;;;;;;;0.30;0.30;;;16.70;99.90;17.60;100290.00;;;;5115597;28;20177;-68
2022/10/24 07:57:26;;;;;;;0.20;0.20;;;16.80;99.90;17.40;100314.00;;;;5115049;28;20189;-68
2022/10/24 07:59:58;;;;;;;0.23;0.23;;;16.70;99.90;18.10;100318.00;;;;5114284;28;20695;-65
2022/10/24 08:02:47;;;;;;;0.30;0.30;;;16.90;99.90;18.40;100336.00;;;;5120995;27;20194;-78
2022/10/24 08:05:40;;;;;;;0.40;0.40;;;17.20;99.90;17.90;100322.00;;;;5119972;27;20645;-76
2022/10/24 08:08:11;;;;;;;0.47;0.33;;;17.00;99.90;18.40;100291.00;;;;5115044;28;20660;-68
2022/10/24 08:10:37;;;;;;;0.20;0.20;;;17.20;99.90;18.60;100320.00;;;;5116251;28;20185;-78
2022/10/24 08:13:06;;;;;;;0.20;0.20;;;17.40;99.90;19.00;100353.00;;;;5114758;28;20688;-78
2022/10/24 08:15:37;;;;;;;0.30;0.30;;;17.70;99.90;17.90;100311.00;;;;5114911;28;20173;-76
2022/10/24 08:18:06;;;;;;;0.43;0.43;;;17.50;99.90;18.10;100310.00;;;;5114514;28;20176;-76
2022/10/24 08:21:10;;;;;;;9.80;2.10;;;17.50;99.90;17.60;100342.00;;;;5115072;28;20158;-75
2022/10/24 08:24:11;;;;;;;2.27;0.40;;;17.10;99.90;18.50;100348.00;;;;5083476;28;20189;-76
2022/10/24 08:26:43;;;;;;;0.20;0.20;;;17.40;99.90;18.80;100368.00;;;;5114572;27;20216;-75
2022/10/24 08:29:24;;;;;;;0.20;0.20;;;17.70;99.90;19.50;100400.00;;;;5117181;27;20180;-76
2022/10/24 08:32:15;;;;;;;0.77;0.37;;;18.00;99.90;19.00;100387.00;;;;5134495;27;20215;-75
2022/10/24 08:35:12;;;;;;;0.87;0.63;;;18.10;99.90;19.10;100370.00;;;;5117826;27;20179;-75
2022/10/24 08:38:11;;;;;;;0.80;0.80;;;18.20;99.90;19.00;100381.00;;;;5110629;27;20694;-76
2022/10/24 08:41:32;;;;;;;3.70;0.37;;;18.20;99.90;19.30;100390.00;;;;5128879;27;20206;-75
2022/10/24 08:44:21;;;;;;;4.70;0.63;;;18.10;99.90;19.40;100395.00;;;;5117537;27;20234;-75
2022/10/24 08:50:08;;;;;;;0.37;0.37;;;18.00;99.90;18.50;100386.00;;;;5135714;27;20187;-75
2022/10/24 08:52:50;;;;;;;2.03;0.30;;;17.60;99.90;18.80;100412.00;;;;5134605;27;20237;-76
2022/10/24 08:55:54;;;;;;;3.93;0.40;;;17.60;99.90;18.70;100371.00;;;;5118089;27;20666;-76
2022/10/24 08:58:26;;;;;;;1.10;0.60;;;17.80;99.90;18.30;100402.00;;;;5113964;28;20209;-75
2022/10/24 09:01:10;;;;;;;0.40;0.40;;;17.60;99.90;18.30;100401.00;;;;5113635;28;20198;-75
2022/10/24 09:03:45;;;;;;;0.20;0.20;;;17.60;99.90;18.70;100405.00;;;;5114117;28;20193;-76
2022/10/24 09:06:28;;;;;;;0.20;0.20;;;17.70;99.90;18.60;100412.00;;;;5114247;28;20171;-75
2022/10/24 09:09:22;;;;;;;0.37;0.37;;;17.90;99.90;19.60;100415.00;;;;5096817;28;20180;-78
2022/10/24 09:12:08;;;;;;;0.30;0.30;;;18.40;99.90;19.00;100440.00;;;;5096822;28;20207;-75
2022/10/24 09:15:07;;;;;;;2.87;1.03;;;18.50;99.90;18.20;100413.00;;;;5115018;27;20195;-75
2022/10/24 09:17:49;;;;;;;2.93;1.10;;;17.80;99.90;19.30;100397.00;;;;5123043;27;20285;-75
2022/10/24 09:20:27;;;;;;;0.30;0.30;;;18.30;99.90;19.60;100443.00;;;;5117401;27;20638;-75
2022/10/24 09:23:06;;;;;;;1.15;0.57;;;18.50;99.90;19.20;100456.00;;;;5134169;27;20637;-75
2022/10/24 09:25:35;;;;;;;0.20;0.20;;;18.70;99.90;20.20;100462.00;;;;5117086;27;20182;-75
2022/10/24 09:28:08;;;;;;;1.17;0.50;;;19.20;99.90;19.70;100453.00;;;;5121760;27;20180;-75
2022/10/24 09:31:12;;;;;;;2.30;1.85;;;19.10;99.90;19.90;100414.00;;;;5096621;28;20184;-79
2022/10/24 09:33:47;;;;;;;0.77;0.55;;;19.20;99.90;20.70;100498.00;;;;5096315;28;20310;-76
2022/10/24 09:36:19;;;;;;;1.08;0.40;;;19.40;99.90;22.00;100500.00;;;;5096319;28;20179;-76
2022/10/24 09:38:53;;;;;;;1.23;0.40;;;20.10;99.90;20.60;100469.00;;;;5113499;28;20172;-76
2022/10/24 09:41:52;;;;;;;1.25;0.45;;;20.30;99.90;20.60;100481.00;;;;5113194;28;20719;-76
2022/10/24 09:44:35;;;;;;;0.82;0.30;;;19.60;99.90;20.50;100457.00;;;;5110364;28;20538;-77
2022/10/24 09:47:08;;;;;;;3.08;2.00;;;19.60;99.90;19.10;100481.00;;;;5113183;28;20267;-77
2022/10/24 09:49:45;;;;;;;2.20;1.15;;;18.80;99.90;18.90;100470.00;;;;5113038;28;20249;-77
2022/10/24 09:52:50;;;;;;;3.55;0.93;;;18.40;99.90;19.20;100429.00;;;;5113161;28;20611;-78
2022/10/24 09:55:33;;;;;;;0.30;0.30;;;18.50;99.90;19.80;100481.00;;;;5100416;28;20194;-81
2022/10/24 09:58:31;;;;;;;5.93;1.10;;;18.60;99.90;19.00;100464.00;;;;5096771;28;20188;-78
2022/10/24 10:01:26;;;;;;;3.27;2.13;;;18.50;99.90;17.90;100411.00;;;;5096904;28;20194;-77
2022/10/24 10:04:18;;;;;;;2.90;0.73;;;17.70;99.90;18.00;100450.00;;;;5112735;28;20582;-78
2022/10/24 10:07:13;;;;;;;5.53;1.30;;;17.60;99.90;18.20;100427.00;;;;5096094;28;20632;-78
2022/10/24 10:10:14;;;;;;;0.60;0.60;;;17.70;99.90;19.00;100481.00;;;;5095752;28;20174;-78
2022/10/24 10:13:22;;;;;;;2.87;0.93;;;18.00;99.90;19.50;100514.00;;;;5111199;28;20261;-78
2022/10/24 10:15:52;;;;;;;0.43;0.43;;;18.60;99.90;19.40;100484.00;;;;5109105;28;20592;-80
2022/10/24 10:18:41;;;;;;;0.90;0.30;;;18.40;99.90;18.90;100492.00;;;;5113832;28;20179;-79
2022/10/24 10:33:44;;;;;;;0.20;0.20;;;18.40;99.90;19.80;100515.00;;;;5070795;28;20623;-75
2022/10/24 10:36:58;;;;;;;0.22;0.22;;;18.80;99.90;20.00;100526.00;;;;5037943;28;20200;-75
2022/10/24 10:40:21;;;;;;;0.10;0.10;;;18.90;99.90;20.90;100533.00;;;;5030739;28;20530;-75
2022/10/24 10:43:12;;;;;;;1.42;0.40;;;19.20;99.90;20.60;100519.00;;;;5027787;28;20571;-75
2022/10/24 10:45:50;;;;;;;6.03;1.00;;;19.40;99.90;19.70;100540.00;;;;5030574;28;20209;-75
2022/10/24 10:48:51;;;;;;;0.50;0.50;;;19.00;99.90;19.10;100535.00;;;;5030438;28;20262;-75
2022/10/24 10:51:35;;;;;;;0.20;0.20;;;18.50;99.90;19.30;100531.00;;;;5029133;28;20576;-75
2022/10/24 10:54:33;;;;;;;0.20;0.20;;;18.30;99.90;19.60;100544.00;;;;5054264;28;20303;-75
2022/10/24 10:57:20;;;;;;;5.90;1.10;;;18.50;99.90;19.10;100536.00;;;;5049745;28;20661;-75
2022/10/24 11:00:35;;;;;;;5.30;1.30;;;18.30;99.90;18.70;100550.00;;;;5032628;28;20223;-75
2022/10/24 11:03:17;;;;;;;0.57;0.57;;;18.10;99.90;20.00;100561.00;;;;5046397;28;20205;-75
2022/10/24 11:06:25;;;;;;;6.90;0.60;;;18.50;99.90;18.50;100546.00;;;;5049896;28;20182;-75
2022/10/24 11:09:09;;;;;;;2.17;0.70;;;18.30;99.90;18.80;100557.00;;;;5050153;28;20219;-75
2022/10/24 11:11:42;;;;;;;2.70;1.43;;;18.30;99.90;18.20;100566.00;;;;5064991;28;20668;-75
2022/10/24 11:14:31;;;;;;;2.60;1.90;;;18.00;99.90;18.40;100546.00;;;;5032087;28;20670;-74
2022/10/24 11:17:51;;;;;;;1.37;0.90;;;17.90;99.90;19.00;100561.00;;;;5049897;28;20189;-75
2022/10/24 11:20:50;;;;;;;0.57;0.30;;;18.10;99.90;18.70;100548.00;;;;5036246;28;20220;-80
2022/10/24 11:24:14;;;;;;;0.50;0.50;;;18.00;99.90;18.70;100559.00;;;;5046019;28;20199;-80
2022/10/24 11:27:27;;;;;;;0.60;0.60;;;18.10;99.90;18.60;100560.00;;;;5042716;28;20219;-80
2022/10/24 11:30:34;;;;;;;1.60;0.47;;;18.00;99.90;18.80;100567.00;;;;5032063;28;20232;-80
2022/10/24 11:33:25;;;;;;;2.47;0.73;;;17.90;99.90;18.60;100576.00;;;;5047743;28;20220;-80
2022/10/24 11:36:32;;;;;;;0.27;0.27;;;18.10;99.90;18.80;100558.00;;;;5045472;28;20198;-80
2022/10/24 11:40:18;;;;;;;0.60;0.57;;;18.00;99.90;18.80;100566.00;;;;5064680;28;20203;-79
2022/10/24 11:43:11;;;;;;;2.20;0.83;;;17.90;99.90;18.60;100569.00;;;;5025495;28;20200;-79
2022/10/24 11:46:05;;;;;;;0.40;0.40;;;17.90;99.90;19.00;100588.00;;;;5013904;28;20216;-79
2022/10/24 11:48:45;;;;;;;0.40;0.40;;;18.00;99.90;18.90;100578.00;;;;5013989;28;20182;-80
2022/10/24 11:51:34;;;;;;;12.07;1.03;;;18.10;99.90;19.20;100587.00;;;;5016210;28;20261;-80
2022/10/24 11:54:16;;;;;;;0.10;0.10;;;18.10;99.90;19.60;100602.00;;;;5033047;28;20186;-80
2022/10/24 11:57:14;;;;;;;2.00;0.60;;;18.50;99.90;18.80;100522.00;;;;5034786;28;20511;-80
2022/10/24 11:59:40;;;;;;;0.30;0.30;;;18.30;99.90;19.00;100589.00;;;;5032696;28;20233;-81
2022/10/24 12:02:31;;;;;;;0.10;0.10;;;18.30;99.90;19.60;100603.00;;;;5034580;28;20193;-80
2022/10/24 12:05:12;;;;;;;0.23;0.23;;;18.40;99.90;20.10;100616.00;;;;5035538;28;20172;-80
2022/10/24 12:08:32;;;;;;;0.40;0.40;;;18.90;99.90;19.50;100608.00;;;;5050812;28;20197;-80
2022/10/24 12:11:19;;;;;;;0.68;0.60;;;18.80;99.90;19.40;100604.00;;;;5016032;28;20195;-80
2022/10/24 12:14:12;;;;;;;0.10;0.10;;;18.70;99.90;20.50;100616.00;;;;5051028;28;20523;-80
2022/10/24 12:17:14;;;;;;;1.38;0.47;;;19.00;99.90;19.20;100619.00;;;;5050534;28;20221;-80
2022/10/24 12:19:43;;;;;;;2.45;0.85;;;18.80;99.90;19.40;100594.00;;;;5035425;28;20179;-80
2022/10/24 12:22:20;;;;;;;0.28;0.28;;;18.60;99.90;19.50;100613.00;;;;5034223;28;20183;-80
2022/10/24 12:24:46;;;;;;;2.65;0.47;;;18.60;99.90;19.50;100596.00;;;;5033860;28;20193;-80
2022/10/24 12:27:34;;;;;;;0.68;0.30;;;18.60;99.90;19.20;100605.00;;;;5033949;28;20182;-81
2022/10/24 12:30:09;;;;;;;0.10;0.10;;;18.60;99.90;20.10;100626.00;;;;5017860;28;20638;-80
2022/10/24 12:32:39;;;;;;;0.40;0.40;;;19.00;99.90;20.20;100634.00;;;;5034808;28;20686;-80
2022/10/24 12:35:25;;;;;;;2.50;0.50;;;19.20;99.90;19.00;100619.00;;;;5017175;28;20175;-81